Aérodrome :
LOGIN :

S'inscrire | Disclaimer

   EN    FR    IT 

 










Légende :    VFR   VFR Marginal   IFR   IFR Intensif   IFR Très Intensif
Visi : 
Plafond : 
>= 8 km
>= 3000ft
5 à 8 km
1000 à 3000 ft
1500m à 5 km
500 à 1000 ft
800 à 1500m
200 à 500 ft
< 800m
< 200 ft
Symboles :   Orages  Brouillard  Fortes neiges  Fortes précipitations  Vent > 20 kt
SIGMETs :   Divers  Orages  Givrage  Turbulence  Onde Orograph.  Cendres Volcan.







- Altitude de l'aérodrome : 499 ft
- Code IATA : TLS
- Voir les cartes d'approche


LFBO - Toulouse / Blagnac

DERNIER METAR :
  • 231530Z AUTO VRB02KT 9999 BKN008 OVC013 13/11 Q1029 TEMPO 2000 -DZ BECMG OVC014

METARs EXPIRÉS :
  • 231500Z AUTO VRB02KT 9999 OVC007 13/11 Q1029 TEMPO 2000 -DZ
  • 231430Z AUTO VRB03KT 9999 4300 BKN010 OVC014 13/11 Q1029 TEMPO 2000 -DZ
  • 231400Z AUTO 33003KT 9999 BKN009 OVC013 12/11 Q1029 TEMPO 2000 -DZ
  • 231330Z AUTO VRB03KT 9999 OVC010 12/10 Q1029 NOSIG
  • 231300Z AUTO VRB01KT 9999 OVC012 13/09 Q1029 NOSIG

TAF AMD TAF LFBO
Valide du 23 à 13h jusqu'au 24 à 18h UTC


231341Z 2313/2418 30003KT 9999 OVC014
TEMPO 2313/2317 2000 -DZ OVC006
BECMG 2320/2322 SCT033
PROB40 2403/2410 0500 FG VV///
BECMG 2410/2412 14012KT
TEMPO 2412/2418 14015G25KT CAVOK
ATIS : +33 5 62 74 66 36
Pas de NOTAMs connus pour ce terrain.



MET'MAP, la Météo Aéronautique d'un coup d'oeil ! - Copyright ORBIFLY Décembre 2007 - Disclaimer

ORBIFLY MET'MAP TEAM :

Programmation & Développement : Alexandra Zaïnal
Conception & Développement : Baudouin d'Aumeries
Co-Programmation & Développement : Marc-Olivier Méhu
Soutien technique & logistique : Manuel Goepfert

Contact : metmap@orbifly.com




SOURCES & CREDITS :

   NOAA